sensor_id;sensor_type;location;lat;lon;timestamp;P1;durP1;ratioP1;P2;durP2;ratioP2
75730;SDS011;64350;47.450;19.124;2022-12-07T05:11:20;26.90;;;15.38;;
75730;SDS011;64350;47.450;19.124;2022-12-07T05:14:18;26.58;;;14.87;;
75730;SDS011;64350;47.450;19.124;2022-12-07T05:16:46;28.02;;;15.05;;
75730;SDS011;64350;47.450;19.124;2022-12-07T05:19:16;26.52;;;14.93;;
75730;SDS011;64350;47.450;19.124;2022-12-07T05:21:42;28.97;;;16.53;;
75730;SDS011;64350;47.450;19.124;2022-12-07T05:24:08;31.37;;;15.53;;
75730;SDS011;64350;47.450;19.124;2022-12-07T05:26:35;26.73;;;14.93;;
75730;SDS011;64350;47.450;19.124;2022-12-07T05:29:00;29.33;;;15.17;;
75730;SDS011;64350;47.450;19.124;2022-12-07T05:31:26;29.17;;;16.47;;
75730;SDS011;64350;47.450;19.124;2022-12-07T05:33:52;25.90;;;15.87;;
75730;SDS011;64350;47.450;19.124;2022-12-07T05:36:17;30.17;;;15.73;;
75730;SDS011;64350;47.450;19.124;2022-12-07T05:38:43;31.43;;;17.17;;
75730;SDS011;64350;47.450;19.124;2022-12-07T05:41:09;28.70;;;14.73;;
75730;SDS011;64350;47.450;19.124;2022-12-07T05:43:57;29.03;;;15.03;;
75730;SDS011;64350;47.450;19.124;2022-12-07T05:46:23;26.00;;;13.07;;
75730;SDS011;64350;47.450;19.124;2022-12-07T05:48:48;28.57;;;14.97;;
75730;SDS011;64350;47.450;19.124;2022-12-07T05:51:14;29.67;;;16.03;;
75730;SDS011;64350;47.450;19.124;2022-12-07T05:53:39;30.50;;;17.40;;
75730;SDS011;64350;47.450;19.124;2022-12-07T05:56:04;34.50;;;16.47;;
75730;SDS011;64350;47.450;19.124;2022-12-07T05:58:30;34.38;;;16.60;;
75730;SDS011;64350;47.450;19.124;2022-12-07T06:01:14;35.25;;;16.75;;
75730;SDS011;64350;47.450;19.124;2022-12-07T06:03:39;32.73;;;17.43;;
75730;SDS011;64350;47.450;19.124;2022-12-07T06:06:05;33.90;;;17.77;;
75730;SDS011;64350;47.450;19.124;2022-12-07T06:08:30;34.63;;;17.47;;
75730;SDS011;64350;47.450;19.124;2022-12-07T06:10:56;33.13;;;18.92;;
75730;SDS011;64350;47.450;19.124;2022-12-07T06:13:42;35.38;;;18.90;;
75730;SDS011;64350;47.450;19.124;2022-12-07T06:16:07;31.87;;;16.50;;
75730;SDS011;64350;47.450;19.124;2022-12-07T06:18:33;31.43;;;17.97;;
75730;SDS011;64350;47.450;19.124;2022-12-07T06:20:58;32.67;;;17.40;;
75730;SDS011;64350;47.450;19.124;2022-12-07T06:23:23;32.00;;;18.07;;
75730;SDS011;64350;47.450;19.124;2022-12-07T06:25:49;33.50;;;18.17;;
75730;SDS011;64350;47.450;19.124;2022-12-07T06:28:14;32.10;;;18.07;;
75730;SDS011;64350;47.450;19.124;2022-12-07T06:30:40;32.93;;;17.87;;
75730;SDS011;64350;47.450;19.124;2022-12-07T06:33:05;31.13;;;17.43;;
75730;SDS011;64350;47.450;19.124;2022-12-07T06:35:32;36.10;;;20.10;;
75730;SDS011;64350;47.450;19.124;2022-12-07T06:37:58;34.95;;;19.50;;
75730;SDS011;64350;47.450;19.124;2022-12-07T06:40:23;34.70;;;18.67;;
75730;SDS011;64350;47.450;19.124;2022-12-07T06:42:48;34.80;;;18.67;;
75730;SDS011;64350;47.450;19.124;2022-12-07T06:45:14;34.20;;;19.00;;
75730;SDS011;64350;47.450;19.124;2022-12-07T06:47:39;34.83;;;19.63;;
75730;SDS011;64350;47.450;19.124;2022-12-07T06:50:05;31.47;;;17.10;;
75730;SDS011;64350;47.450;19.124;2022-12-07T06:52:32;32.17;;;17.20;;
75730;SDS011;64350;47.450;19.124;2022-12-07T06:54:58;35.00;;;19.50;;
75730;SDS011;64350;47.450;19.124;2022-12-07T06:57:23;36.30;;;17.73;;
75730;SDS011;64350;47.450;19.124;2022-12-07T06:59:49;35.00;;;18.60;;
75730;SDS011;64350;47.450;19.124;2022-12-07T07:02:14;36.60;;;19.43;;
75730;SDS011;64350;47.450;19.124;2022-12-07T07:04:39;34.07;;;18.53;;
75730;SDS011;64350;47.450;19.124;2022-12-07T07:07:05;36.47;;;20.23;;
75730;SDS011;64350;47.450;19.124;2022-12-07T07:09:30;42.03;;;20.43;;
75730;SDS011;64350;47.450;19.124;2022-12-07T07:11:56;37.97;;;19.63;;
75730;SDS011;64350;47.450;19.124;2022-12-07T07:14:21;40.67;;;21.30;;
75730;SDS011;64350;47.450;19.124;2022-12-07T07:16:46;42.03;;;19.02;;
75730;SDS011;64350;47.450;19.124;2022-12-07T07:19:12;35.30;;;19.00;;
75730;SDS011;64350;47.450;19.124;2022-12-07T07:21:37;40.70;;;19.93;;
75730;SDS011;64350;47.450;19.124;2022-12-07T07:24:03;41.40;;;20.37;;
75730;SDS011;64350;47.450;19.124;2022-12-07T07:26:28;33.38;;;19.40;;
75730;SDS011;64350;47.450;19.124;2022-12-07T07:28:55;40.75;;;20.42;;
75730;SDS011;64350;47.450;19.124;2022-12-07T07:31:20;34.93;;;18.50;;
75730;SDS011;64350;47.450;19.124;2022-12-07T07:33:46;36.07;;;20.10;;
75730;SDS011;64350;47.450;19.124;2022-12-07T07:36:11;34.95;;;19.08;;
75730;SDS011;64350;47.450;19.124;2022-12-07T07:38:37;35.33;;;19.17;;
75730;SDS011;64350;47.450;19.124;2022-12-07T07:41:02;32.47;;;18.17;;
75730;SDS011;64350;47.450;19.124;2022-12-07T07:43:28;37.83;;;19.83;;
75730;SDS011;64350;47.450;19.124;2022-12-07T07:45:53;33.57;;;19.47;;
75730;SDS011;64350;47.450;19.124;2022-12-07T07:48:19;36.60;;;19.73;;
75730;SDS011;64350;47.450;19.124;2022-12-07T07:50:44;39.90;;;19.97;;
75730;SDS011;64350;47.450;19.124;2022-12-07T07:53:09;36.00;;;20.00;;
75730;SDS011;64350;47.450;19.124;2022-12-07T07:55:35;37.60;;;21.02;;
75730;SDS011;64350;47.450;19.124;2022-12-07T07:58:00;36.70;;;19.50;;
75730;SDS011;64350;47.450;19.124;2022-12-07T08:00:26;39.83;;;21.73;;
75730;SDS011;64350;47.450;19.124;2022-12-07T08:02:51;37.87;;;19.57;;
75730;SDS011;64350;47.450;19.124;2022-12-07T08:05:17;36.23;;;19.17;;
75730;SDS011;64350;47.450;19.124;2022-12-07T08:07:42;37.38;;;19.45;;
75730;SDS011;64350;47.450;19.124;2022-12-07T08:10:09;36.00;;;19.60;;
75730;SDS011;64350;47.450;19.124;2022-12-07T08:12:40;33.05;;;20.27;;
75730;SDS011;64350;47.450;19.124;2022-12-07T08:15:26;33.60;;;19.10;;
75730;SDS011;64350;47.450;19.124;2022-12-07T08:17:53;35.30;;;19.30;;
75730;SDS011;64350;47.450;19.124;2022-12-07T08:20:19;37.87;;;20.40;;
75730;SDS011;64350;47.450;19.124;2022-12-07T08:22:44;32.67;;;18.37;;
75730;SDS011;64350;47.450;19.124;2022-12-07T08:25:10;36.03;;;18.37;;
75730;SDS011;64350;47.450;19.124;2022-12-07T08:27:35;32.57;;;18.70;;
75730;SDS011;64350;47.450;19.124;2022-12-07T08:30:00;33.30;;;18.67;;
75730;SDS011;64350;47.450;19.124;2022-12-07T08:32:26;32.72;;;18.55;;
75730;SDS011;64350;47.450;19.124;2022-12-07T08:34:51;32.30;;;18.43;;
75730;SDS011;64350;47.450;19.124;2022-12-07T08:37:17;36.33;;;18.50;;
75730;SDS011;64350;47.450;19.124;2022-12-07T08:39:43;32.83;;;18.07;;
75730;SDS011;64350;47.450;19.124;2022-12-07T08:42:08;35.83;;;20.20;;
75730;SDS011;64350;47.450;19.124;2022-12-07T08:44:33;31.83;;;18.57;;
75730;SDS011;64350;47.450;19.124;2022-12-07T08:47:00;31.17;;;17.47;;
75730;SDS011;64350;47.450;19.124;2022-12-07T08:49:30;32.03;;;17.80;;
75730;SDS011;64350;47.450;19.124;2022-12-07T08:51:58;32.60;;;19.10;;
75730;SDS011;64350;47.450;19.124;2022-12-07T08:54:23;31.37;;;18.07;;
75730;SDS011;64350;47.450;19.124;2022-12-07T08:56:49;33.58;;;18.98;;
75730;SDS011;64350;47.450;19.124;2022-12-07T08:59:16;33.33;;;19.40;;
75730;SDS011;64350;47.450;19.124;2022-12-07T09:01:42;27.40;;;16.02;;
75730;SDS011;64350;47.450;19.124;2022-12-07T09:04:08;29.70;;;16.53;;
75730;SDS011;64350;47.450;19.124;2022-12-07T09:06:34;28.03;;;16.80;;
75730;SDS011;64350;47.450;19.124;2022-12-07T09:08:59;30.87;;;17.13;;
75730;SDS011;64350;47.450;19.124;2022-12-07T09:11:26;29.08;;;16.90;;
75730;SDS011;64350;47.450;19.124;2022-12-07T09:13:52;29.52;;;17.55;;
75730;SDS011;64350;47.450;19.124;2022-12-07T09:16:17;34.03;;;18.03;;
75730;SDS011;64350;47.450;19.124;2022-12-07T09:18:43;33.87;;;18.43;;
75730;SDS011;64350;47.450;19.124;2022-12-07T09:21:08;34.47;;;19.27;;
75730;SDS011;64350;47.450;19.124;2022-12-07T09:23:34;31.37;;;17.15;;
75730;SDS011;64350;47.450;19.124;2022-12-07T09:26:00;31.87;;;17.87;;
75730;SDS011;64350;47.450;19.124;2022-12-07T09:28:26;30.17;;;17.90;;
75730;SDS011;64350;47.450;19.124;2022-12-07T09:30:52;34.75;;;17.90;;
75730;SDS011;64350;47.450;19.124;2022-12-07T09:33:17;28.93;;;16.63;;
75730;SDS011;64350;47.450;19.124;2022-12-07T09:35:46;27.80;;;16.77;;
75730;SDS011;64350;47.450;19.124;2022-12-07T09:38:12;27.80;;;16.23;;
75730;SDS011;64350;47.450;19.124;2022-12-07T09:40:38;29.58;;;17.62;;
75730;SDS011;64350;47.450;19.124;2022-12-07T09:43:03;30.17;;;17.30;;
75730;SDS011;64350;47.450;19.124;2022-12-07T09:45:37;30.13;;;16.90;;
75730;SDS011;64350;47.450;19.124;2022-12-07T09:48:03;29.48;;;16.08;;
75730;SDS011;64350;47.450;19.124;2022-12-07T09:50:29;26.42;;;15.68;;
75730;SDS011;64350;47.450;19.124;2022-12-07T09:53:07;24.97;;;15.53;;
75730;SDS011;64350;47.450;19.124;2022-12-07T09:55:35;27.05;;;15.90;;
75730;SDS011;64350;47.450;19.124;2022-12-07T09:58:01;29.42;;;17.00;;
75730;SDS011;64350;47.450;19.124;2022-12-07T10:00:27;26.83;;;15.83;;
75730;SDS011;64350;47.450;19.124;2022-12-07T10:02:57;25.52;;;16.52;;
75730;SDS011;64350;47.450;19.124;2022-12-07T10:05:48;23.70;;;15.85;;
75730;SDS011;64350;47.450;19.124;2022-12-07T10:08:13;26.90;;;15.05;;
75730;SDS011;64350;47.450;19.124;2022-12-07T10:10:40;24.37;;;15.15;;
75730;SDS011;64350;47.450;19.124;2022-12-07T10:13:10;24.90;;;15.27;;
75730;SDS011;64350;47.450;19.124;2022-12-07T10:21:00;24.23;;;13.60;;
75730;SDS011;64350;47.450;19.124;2022-12-07T10:23:26;24.08;;;14.38;;
75730;SDS011;64350;47.450;19.124;2022-12-07T10:25:52;27.03;;;15.37;;
75730;SDS011;64350;47.450;19.124;2022-12-07T10:28:20;22.83;;;13.57;;
75730;SDS011;64350;47.450;19.124;2022-12-07T10:33:32;25.23;;;14.75;;
75730;SDS011;64350;47.450;19.124;2022-12-07T10:36:01;27.67;;;14.68;;
75730;SDS011;64350;47.450;19.124;2022-12-07T10:38:46;24.60;;;13.87;;
75730;SDS011;64350;47.450;19.124;2022-12-07T10:41:12;26.37;;;15.50;;
75730;SDS011;64350;47.450;19.124;2022-12-07T10:43:43;26.17;;;15.43;;
75730;SDS011;64350;47.450;19.124;2022-12-07T10:46:32;24.05;;;13.20;;
75730;SDS011;64350;47.450;19.124;2022-12-07T10:54:12;23.48;;;14.55;;
75730;SDS011;64350;47.450;19.124;2022-12-07T10:57:04;24.40;;;12.77;;
75730;SDS011;64350;47.450;19.124;2022-12-07T10:59:40;26.92;;;14.45;;
75730;SDS011;64350;47.450;19.124;2022-12-07T11:02:19;22.95;;;14.45;;
75730;SDS011;64350;47.450;19.124;2022-12-07T11:05:34;24.92;;;13.25;;
75730;SDS011;64350;47.450;19.124;2022-12-07T11:07:56;23.80;;;14.00;;
75730;SDS011;64350;47.450;19.124;2022-12-07T11:24:19;16.03;;;9.40;;
75730;SDS011;64350;47.450;19.124;2022-12-07T11:27:01;14.73;;;9.25;;
75730;SDS011;64350;47.450;19.124;2022-12-07T11:37:40;9.77;;;5.50;;
75730;SDS011;64350;47.450;19.124;2022-12-07T11:42:41;12.18;;;5.87;;
75730;SDS011;64350;47.450;19.124;2022-12-07T11:45:13;10.77;;;5.73;;
75730;SDS011;64350;47.450;19.124;2022-12-07T11:50:41;10.70;;;6.10;;
75730;SDS011;64350;47.450;19.124;2022-12-07T12:00:47;12.30;;;6.50;;
75730;SDS011;64350;47.450;19.124;2022-12-07T12:03:21;10.70;;;5.57;;
75730;SDS011;64350;47.450;19.124;2022-12-07T12:05:55;10.90;;;6.68;;
75730;SDS011;64350;47.450;19.124;2022-12-07T12:08:27;11.90;;;6.60;;
75730;SDS011;64350;47.450;19.124;2022-12-07T12:11:15;11.83;;;6.80;;
75730;SDS011;64350;47.450;19.124;2022-12-07T12:14:00;12.23;;;6.25;;
75730;SDS011;64350;47.450;19.124;2022-12-07T12:19:27;16.77;;;8.43;;
75730;SDS011;64350;47.450;19.124;2022-12-07T12:22:06;14.70;;;7.07;;
75730;SDS011;64350;47.450;19.124;2022-12-07T12:24:43;11.03;;;6.13;;
75730;SDS011;64350;47.450;19.124;2022-12-07T12:27:32;12.18;;;6.30;;
75730;SDS011;64350;47.450;19.124;2022-12-07T12:30:01;12.32;;;6.78;;
75730;SDS011;64350;47.450;19.124;2022-12-07T12:32:37;10.30;;;6.00;;
75730;SDS011;64350;47.450;19.124;2022-12-07T12:35:21;12.52;;;6.80;;
75730;SDS011;64350;47.450;19.124;2022-12-07T12:40:58;11.63;;;6.87;;
75730;SDS011;64350;47.450;19.124;2022-12-07T12:51:51;13.47;;;7.17;;
75730;SDS011;64350;47.450;19.124;2022-12-07T13:01:58;15.98;;;8.02;;
75730;SDS011;64350;47.450;19.124;2022-12-07T13:06:57;12.17;;;6.40;;
75730;SDS011;64350;47.450;19.124;2022-12-07T13:09:44;10.87;;;6.57;;
75730;SDS011;64350;47.450;19.124;2022-12-07T13:12:12;13.05;;;7.70;;
75730;SDS011;64350;47.450;19.124;2022-12-07T13:14:43;12.23;;;6.80;;
75730;SDS011;64350;47.450;19.124;2022-12-07T13:24:56;14.15;;;7.22;;
75730;SDS011;64350;47.450;19.124;2022-12-07T13:27:48;11.80;;;6.60;;
75730;SDS011;64350;47.450;19.124;2022-12-07T13:30:18;12.00;;;6.87;;
75730;SDS011;64350;47.450;19.124;2022-12-07T13:32:55;13.93;;;6.32;;
75730;SDS011;64350;47.450;19.124;2022-12-07T13:35:32;15.80;;;6.95;;
75730;SDS011;64350;47.450;19.124;2022-12-07T13:38:03;11.23;;;6.05;;
75730;SDS011;64350;47.450;19.124;2022-12-07T13:40:30;13.20;;;6.62;;
75730;SDS011;64350;47.450;19.124;2022-12-07T13:43:00;12.60;;;6.77;;
75730;SDS011;64350;47.450;19.124;2022-12-07T13:45:30;16.77;;;8.07;;
75730;SDS011;64350;47.450;19.124;2022-12-07T13:51:00;14.07;;;7.15;;
75730;SDS011;64350;47.450;19.124;2022-12-07T13:53:28;16.58;;;7.60;;
75730;SDS011;64350;47.450;19.124;2022-12-07T13:55:55;15.30;;;8.55;;
75730;SDS011;64350;47.450;19.124;2022-12-07T13:58:21;15.02;;;8.20;;
75730;SDS011;64350;47.450;19.124;2022-12-07T14:00:47;16.47;;;7.60;;
75730;SDS011;64350;47.450;19.124;2022-12-07T14:05:42;13.53;;;7.17;;
75730;SDS011;64350;47.450;19.124;2022-12-07T14:15:56;12.95;;;6.85;;
75730;SDS011;64350;47.450;19.124;2022-12-07T14:18:27;18.42;;;8.57;;
75730;SDS011;64350;47.450;19.124;2022-12-07T14:23:36;12.77;;;6.57;;
75730;SDS011;64350;47.450;19.124;2022-12-07T14:26:18;13.80;;;6.82;;
75730;SDS011;64350;47.450;19.124;2022-12-07T14:28:45;13.57;;;6.80;;
75730;SDS011;64350;47.450;19.124;2022-12-07T14:31:11;15.10;;;7.30;;
75730;SDS011;64350;47.450;19.124;2022-12-07T14:33:37;11.93;;;6.40;;
75730;SDS011;64350;47.450;19.124;2022-12-07T14:36:03;15.70;;;6.72;;
75730;SDS011;64350;47.450;19.124;2022-12-07T14:38:33;13.95;;;7.18;;
75730;SDS011;64350;47.450;19.124;2022-12-07T14:40:58;13.97;;;7.50;;
75730;SDS011;64350;47.450;19.124;2022-12-07T14:43:43;13.50;;;6.43;;
75730;SDS011;64350;47.450;19.124;2022-12-07T14:46:09;13.47;;;6.70;;
75730;SDS011;64350;47.450;19.124;2022-12-07T14:48:34;12.50;;;7.17;;
75730;SDS011;64350;47.450;19.124;2022-12-07T14:50:59;14.47;;;6.67;;
75730;SDS011;64350;47.450;19.124;2022-12-07T14:53:28;15.65;;;8.68;;
75730;SDS011;64350;47.450;19.124;2022-12-07T14:55:56;16.73;;;7.27;;
75730;SDS011;64350;47.450;19.124;2022-12-07T14:58:21;17.27;;;8.00;;
75730;SDS011;64350;47.450;19.124;2022-12-07T15:00:46;18.77;;;8.63;;
75730;SDS011;64350;47.450;19.124;2022-12-07T15:03:12;18.57;;;9.23;;
75730;SDS011;64350;47.450;19.124;2022-12-07T15:05:38;18.95;;;9.23;;
75730;SDS011;64350;47.450;19.124;2022-12-07T15:08:04;17.77;;;9.73;;
75730;SDS011;64350;47.450;19.124;2022-12-07T15:10:31;19.40;;;9.50;;
75730;SDS011;64350;47.450;19.124;2022-12-07T15:12:58;15.70;;;8.70;;
75730;SDS011;64350;47.450;19.124;2022-12-07T15:15:44;19.25;;;9.20;;
75730;SDS011;64350;47.450;19.124;2022-12-07T15:18:10;23.43;;;10.23;;
75730;SDS011;64350;47.450;19.124;2022-12-07T15:20:36;23.98;;;9.32;;
75730;SDS011;64350;47.450;19.124;2022-12-07T15:23:01;23.10;;;8.90;;
75730;SDS011;64350;47.450;19.124;2022-12-07T15:25:26;24.53;;;11.23;;
75730;SDS011;64350;47.450;19.124;2022-12-07T15:27:52;22.10;;;9.63;;
75730;SDS011;64350;47.450;19.124;2022-12-07T15:30:17;22.97;;;10.70;;
75730;SDS011;64350;47.450;19.124;2022-12-07T15:32:42;28.90;;;10.85;;
75730;SDS011;64350;47.450;19.124;2022-12-07T15:35:08;23.63;;;10.80;;
75730;SDS011;64350;47.450;19.124;2022-12-07T15:37:33;27.43;;;14.37;;
75730;SDS011;64350;47.450;19.124;2022-12-07T15:39:59;25.80;;;14.03;;
75730;SDS011;64350;47.450;19.124;2022-12-07T15:42:24;22.92;;;12.73;;
75730;SDS011;64350;47.450;19.124;2022-12-07T15:44:50;25.23;;;11.53;;
75730;SDS011;64350;47.450;19.124;2022-12-07T15:47:34;30.52;;;12.25;;
75730;SDS011;64350;47.450;19.124;2022-12-07T15:50:04;25.05;;;11.82;;
75730;SDS011;64350;47.450;19.124;2022-12-07T15:52:30;23.93;;;12.90;;
75730;SDS011;64350;47.450;19.124;2022-12-07T15:54:56;26.00;;;12.13;;
75730;SDS011;64350;47.450;19.124;2022-12-07T15:57:21;25.67;;;12.67;;
75730;SDS011;64350;47.450;19.124;2022-12-07T15:59:47;20.37;;;11.80;;
75730;SDS011;64350;47.450;19.124;2022-12-07T16:02:12;26.85;;;12.18;;
75730;SDS011;64350;47.450;19.124;2022-12-07T16:04:38;25.83;;;13.57;;
75730;SDS011;64350;47.450;19.124;2022-12-07T16:07:03;23.63;;;12.63;;
75730;SDS011;64350;47.450;19.124;2022-12-07T16:09:29;27.40;;;12.37;;
75730;SDS011;64350;47.450;19.124;2022-12-07T16:11:54;23.15;;;12.15;;
75730;SDS011;64350;47.450;19.124;2022-12-07T16:14:20;22.90;;;12.20;;
75730;SDS011;64350;47.450;19.124;2022-12-07T16:16:46;29.98;;;12.55;;
75730;SDS011;64350;47.450;19.124;2022-12-07T16:19:15;23.03;;;11.60;;
75730;SDS011;64350;47.450;19.124;2022-12-07T16:21:40;26.05;;;12.82;;
75730;SDS011;64350;47.450;19.124;2022-12-07T16:24:07;28.62;;;12.82;;
75730;SDS011;64350;47.450;19.124;2022-12-07T16:26:35;33.73;;;12.23;;
75730;SDS011;64350;47.450;19.124;2022-12-07T16:29:01;24.10;;;12.65;;
75730;SDS011;64350;47.450;19.124;2022-12-07T16:31:27;26.17;;;12.67;;
75730;SDS011;64350;47.450;19.124;2022-12-07T16:33:53;28.45;;;13.52;;
75730;SDS011;64350;47.450;19.124;2022-12-07T16:36:21;28.57;;;15.20;;
75730;SDS011;64350;47.450;19.124;2022-12-07T16:38:49;31.65;;;16.00;;
75730;SDS011;64350;47.450;19.124;2022-12-07T16:41:15;31.92;;;16.20;;
75730;SDS011;64350;47.450;19.124;2022-12-07T16:43:40;34.00;;;15.83;;
75730;SDS011;64350;47.450;19.124;2022-12-07T16:46:06;29.93;;;15.30;;
75730;SDS011;64350;47.450;19.124;2022-12-07T16:48:31;28.73;;;15.43;;
75730;SDS011;64350;47.450;19.124;2022-12-07T16:51:02;32.92;;;18.60;;
75730;SDS011;64350;47.450;19.124;2022-12-07T16:53:31;34.90;;;16.73;;
75730;SDS011;64350;47.450;19.124;2022-12-07T16:55:57;34.20;;;15.35;;
75730;SDS011;64350;47.450;19.124;2022-12-07T16:58:22;29.03;;;16.50;;
75730;SDS011;64350;47.450;19.124;2022-12-07T17:00:48;32.45;;;16.52;;
75730;SDS011;64350;47.450;19.124;2022-12-07T17:03:13;38.07;;;17.47;;
75730;SDS011;64350;47.450;19.124;2022-12-07T17:05:40;35.17;;;17.20;;
75730;SDS011;64350;47.450;19.124;2022-12-07T17:08:06;42.17;;;20.17;;
75730;SDS011;64350;47.450;19.124;2022-12-07T17:10:33;37.65;;;19.00;;
75730;SDS011;64350;47.450;19.124;2022-12-07T17:13:05;42.17;;;20.10;;
75730;SDS011;64350;47.450;19.124;2022-12-07T17:16:09;41.78;;;20.35;;
75730;SDS011;64350;47.450;19.124;2022-12-07T17:18:35;42.97;;;19.77;;
75730;SDS011;64350;47.450;19.124;2022-12-07T17:21:04;45.97;;;18.70;;
75730;SDS011;64350;47.450;19.124;2022-12-07T17:23:31;39.40;;;19.17;;
75730;SDS011;64350;47.450;19.124;2022-12-07T17:26:03;42.78;;;18.87;;
75730;SDS011;64350;47.450;19.124;2022-12-07T17:28:36;37.22;;;18.92;;
75730;SDS011;64350;47.450;19.124;2022-12-07T17:31:05;37.63;;;18.48;;
75730;SDS011;64350;47.450;19.124;2022-12-07T17:33:32;42.57;;;19.70;;
75730;SDS011;64350;47.450;19.124;2022-12-07T17:35:59;35.40;;;18.05;;
75730;SDS011;64350;47.450;19.124;2022-12-07T17:38:24;38.10;;;17.23;;
75730;SDS011;64350;47.450;19.124;2022-12-07T17:40:50;38.50;;;18.57;;
75730;SDS011;64350;47.450;19.124;2022-12-07T17:43:15;39.45;;;17.90;;
75730;SDS011;64350;47.450;19.124;2022-12-07T17:45:41;42.93;;;19.70;;
75730;SDS011;64350;47.450;19.124;2022-12-07T17:48:06;40.60;;;18.70;;
75730;SDS011;64350;47.450;19.124;2022-12-07T17:50:32;39.90;;;19.50;;
75730;SDS011;64350;47.450;19.124;2022-12-07T17:53:16;40.58;;;20.23;;
75730;SDS011;64350;47.450;19.124;2022-12-07T17:55:42;43.10;;;20.47;;
75730;SDS011;64350;47.450;19.124;2022-12-07T17:58:07;38.95;;;19.42;;
75730;SDS011;64350;47.450;19.124;2022-12-07T18:00:33;42.27;;;19.73;;
75730;SDS011;64350;47.450;19.124;2022-12-07T18:03:05;39.72;;;19.02;;
75730;SDS011;64350;47.450;19.124;2022-12-07T18:05:33;41.88;;;20.52;;
75730;SDS011;64350;47.450;19.124;2022-12-07T18:07:59;45.27;;;20.33;;
75730;SDS011;64350;47.450;19.124;2022-12-07T18:10:24;41.40;;;20.70;;
75730;SDS011;64350;47.450;19.124;2022-12-07T18:12:49;47.85;;;20.23;;
75730;SDS011;64350;47.450;19.124;2022-12-07T18:15:15;40.00;;;20.87;;
75730;SDS011;64350;47.450;19.124;2022-12-07T18:17:40;43.20;;;20.47;;
75730;SDS011;64350;47.450;19.124;2022-12-07T18:20:06;46.95;;;20.27;;
75730;SDS011;64350;47.450;19.124;2022-12-07T18:22:32;41.50;;;19.20;;
75730;SDS011;64350;47.450;19.124;2022-12-07T18:24:57;45.38;;;20.45;;
75730;SDS011;64350;47.450;19.124;2022-12-07T18:27:23;44.10;;;20.63;;
75730;SDS011;64350;47.450;19.124;2022-12-07T18:29:48;45.50;;;20.20;;
75730;SDS011;64350;47.450;19.124;2022-12-07T18:32:14;42.97;;;19.00;;
75730;SDS011;64350;47.450;19.124;2022-12-07T18:34:42;41.35;;;18.87;;
75730;SDS011;64350;47.450;19.124;2022-12-07T18:37:07;43.43;;;19.53;;
75730;SDS011;64350;47.450;19.124;2022-12-07T18:39:33;45.83;;;21.20;;
75730;SDS011;64350;47.450;19.124;2022-12-07T18:41:58;38.93;;;19.17;;
75730;SDS011;64350;47.450;19.124;2022-12-07T18:44:23;40.63;;;18.90;;
75730;SDS011;64350;47.450;19.124;2022-12-07T18:46:49;39.47;;;19.37;;
75730;SDS011;64350;47.450;19.124;2022-12-07T18:49:14;40.63;;;20.30;;
75730;SDS011;64350;47.450;19.124;2022-12-07T18:51:40;39.22;;;19.55;;
75730;SDS011;64350;47.450;19.124;2022-12-07T18:54:07;42.53;;;20.25;;
75730;SDS011;64350;47.450;19.124;2022-12-07T18:56:33;43.22;;;21.33;;
75730;SDS011;64350;47.450;19.124;2022-12-07T18:59:01;43.45;;;21.23;;
75730;SDS011;64350;47.450;19.124;2022-12-07T19:01:48;42.10;;;20.10;;
75730;SDS011;64350;47.450;19.124;2022-12-07T19:04:15;50.35;;;23.80;;
75730;SDS011;64350;47.450;19.124;2022-12-07T19:06:42;58.42;;;28.20;;
75730;SDS011;64350;47.450;19.124;2022-12-07T19:09:08;63.78;;;29.08;;
75730;SDS011;64350;47.450;19.124;2022-12-07T19:11:34;67.50;;;31.93;;
75730;SDS011;64350;47.450;19.124;2022-12-07T19:14:24;61.83;;;28.25;;
75730;SDS011;64350;47.450;19.124;2022-12-07T19:16:51;63.05;;;29.25;;
75730;SDS011;64350;47.450;19.124;2022-12-07T19:19:19;66.22;;;30.02;;
75730;SDS011;64350;47.450;19.124;2022-12-07T19:21:45;59.80;;;30.23;;
75730;SDS011;64350;47.450;19.124;2022-12-07T19:24:11;60.42;;;27.62;;
75730;SDS011;64350;47.450;19.124;2022-12-07T19:26:36;58.00;;;28.30;;
75730;SDS011;64350;47.450;19.124;2022-12-07T19:29:02;67.17;;;29.73;;
75730;SDS011;64350;47.450;19.124;2022-12-07T19:31:27;60.73;;;28.27;;
75730;SDS011;64350;47.450;19.124;2022-12-07T19:33:53;60.57;;;28.37;;
75730;SDS011;64350;47.450;19.124;2022-12-07T19:36:18;68.30;;;32.67;;
75730;SDS011;64350;47.450;19.124;2022-12-07T19:38:43;56.63;;;28.73;;
75730;SDS011;64350;47.450;19.124;2022-12-07T19:41:10;61.90;;;27.73;;
75730;SDS011;64350;47.450;19.124;2022-12-07T19:43:56;57.58;;;27.52;;
75730;SDS011;64350;47.450;19.124;2022-12-07T19:46:22;63.63;;;30.73;;
75730;SDS011;64350;47.450;19.124;2022-12-07T19:48:48;62.33;;;30.23;;
75730;SDS011;64350;47.450;19.124;2022-12-07T19:51:13;65.22;;;29.73;;
75730;SDS011;64350;47.450;19.124;2022-12-07T19:53:38;62.03;;;28.43;;
75730;SDS011;64350;47.450;19.124;2022-12-07T19:56:04;63.43;;;29.47;;
75730;SDS011;64350;47.450;19.124;2022-12-07T19:58:30;61.67;;;29.35;;
75730;SDS011;64350;47.450;19.124;2022-12-07T20:01:00;61.20;;;29.90;;
75730;SDS011;64350;47.450;19.124;2022-12-07T20:03:29;70.93;;;30.50;;
75730;SDS011;64350;47.450;19.124;2022-12-07T20:05:55;72.50;;;33.63;;
75730;SDS011;64350;47.450;19.124;2022-12-07T20:08:21;72.32;;;33.60;;
75730;SDS011;64350;47.450;19.124;2022-12-07T20:10:47;68.10;;;32.47;;
75730;SDS011;64350;47.450;19.124;2022-12-07T20:13:12;75.37;;;34.77;;
75730;SDS011;64350;47.450;19.124;2022-12-07T20:15:53;67.70;;;31.52;;
75730;SDS011;64350;47.450;19.124;2022-12-07T20:18:19;71.28;;;33.13;;
75730;SDS011;64350;47.450;19.124;2022-12-07T20:20:52;72.60;;;32.15;;
75730;SDS011;64350;47.450;19.124;2022-12-07T20:23:26;73.68;;;32.47;;
75730;SDS011;64350;47.450;19.124;2022-12-07T20:25:55;76.68;;;33.60;;
75730;SDS011;64350;47.450;19.124;2022-12-07T20:28:20;72.03;;;35.65;;
75730;SDS011;64350;47.450;19.124;2022-12-07T20:30:50;80.75;;;36.00;;
75730;SDS011;64350;47.450;19.124;2022-12-07T20:33:16;82.03;;;36.92;;
75730;SDS011;64350;47.450;19.124;2022-12-07T20:35:41;80.50;;;36.93;;
75730;SDS011;64350;47.450;19.124;2022-12-07T20:38:08;77.55;;;37.47;;
75730;SDS011;64350;47.450;19.124;2022-12-07T20:40:34;76.90;;;36.77;;
75730;SDS011;64350;47.450;19.124;2022-12-07T20:42:59;78.10;;;35.75;;
75730;SDS011;64350;47.450;19.124;2022-12-07T20:45:25;77.47;;;36.23;;
75730;SDS011;64350;47.450;19.124;2022-12-07T20:47:51;84.10;;;37.17;;
75730;SDS011;64350;47.450;19.124;2022-12-07T20:50:16;74.53;;;36.63;;
75730;SDS011;64350;47.450;19.124;2022-12-07T20:52:41;80.57;;;37.37;;
75730;SDS011;64350;47.450;19.124;2022-12-07T20:55:07;82.97;;;38.27;;
75730;SDS011;64350;47.450;19.124;2022-12-07T20:57:32;75.03;;;36.60;;
75730;SDS011;64350;47.450;19.124;2022-12-07T20:59:58;87.83;;;38.83;;
75730;SDS011;64350;47.450;19.124;2022-12-07T21:02:23;92.00;;;40.53;;
75730;SDS011;64350;47.450;19.124;2022-12-07T21:04:49;87.10;;;41.10;;